Fultonham, Ohio
Current Conditions -  °F | °C
As of 3:53 AM on Sunday 26 Oct 2014 (Local Time) from KZZV Reporting Station
Clear Clear  
Wind Chill: 51°   Ceiling: Unl
Heat Index: 51°   Visibility: 10mi
Dew Point: 32°   Wind: 7mph
Humidity: 48%   Direction: 280°W
Pressure: 29.87"   Gusts: NA
Location:  39.86°N, 82.14°W
Report Text: KZZV 260753Z AUTO 28006KT 10SM CLR 11/00 A2987 RMK AO2 SLP112 T01060000
Loading
Personal Weather Stations






























Interactive Weather Map
Tropical Storm Tracking
New forecast layout! Learn more

10-Day Weather Forecast

Advertisements
Track Severe Weather on mobile